CheckWX is a tool to help pilots better visualize weather data.  It is not intended as a substitute for an official pre-flight weather briefing.

20:47:07 UTC

LFRH TAF
Lorient South Brittany (Bretagne Sud) Airport
Lorient/Lann/Bihoué, France
TAF AMD LFRH 222004Z 2220/2318 VRB05KT 2500 BR NSC TEMPO 2302/2306 0400 BCFG VV/// TEMPO 2306/2308 BKN004 BECMG 2308/2309 9999 NSW

Mar-22@
20:00 UTC

Mar-22 @ 20:00 UTC

Mar-23@
08:00 UTC

Mar-23 @ 08:00 UTC

TAF AMD LFRH 222004Z 2220/2318 VRB05KT 2500 BR NSC
Wind
  • Variable at 5 KTS
Conditions
Mist
Cloud Levels
  • No significant clouds

Mar-23@
02:00 UTC

Mar-23 @ 02:00 UTC

Mar-23@
06:00 UTC

Mar-23 @ 06:00 UTC

TEMPO 2302/2306 0400 BCFG VV///

Temporary

Temporary Changes expected for less than half the time period

Conditions
Patches of Fog

Mar-23@
06:00 UTC

Mar-23 @ 06:00 UTC

Mar-23@
08:00 UTC

Mar-23 @ 08:00 UTC

TEMPO 2306/2308 BKN004

Temporary

Temporary Changes expected for less than half the time period

Cloud Levels
  • Broken at 400' AGL

Mar-23@
08:00 UTC

Mar-23 @ 08:00 UTC

Mar-23@
18:00 UTC

Mar-23 @ 18:00 UTC

BECMG 2308/2309 9999 NSW

Becoming

Becoming Conditions expected by Sat, Mar 23, 2019 @ 09:00 UTC

Wind
  • Variable at 5 KTS
Conditions
No significant weather
Cloud Levels
  • No significant clouds